sensor_id;sensor_type;location;lat;lon;timestamp;noise_LAeq;noise_LA_min;noise_LA_max;noise_LA01;noise_LA95
17594;Laerm;8916;47.086;15.920;2022-12-18T00:02:13;49.59;48.54;50.60;;
17594;Laerm;8916;47.086;15.920;2022-12-18T00:04:42;49.59;48.51;50.69;;
17594;Laerm;8916;47.086;15.920;2022-12-18T00:07:11;49.60;48.42;50.73;;
17594;Laerm;8916;47.086;15.920;2022-12-18T00:09:40;49.61;48.46;50.70;;
17594;Laerm;8916;47.086;15.920;2022-12-18T00:12:09;49.59;48.51;50.76;;
17594;Laerm;8916;47.086;15.920;2022-12-18T00:14:45;49.61;48.57;50.57;;
17594;Laerm;8916;47.086;15.920;2022-12-18T00:17:15;49.60;48.48;50.81;;
17594;Laerm;8916;47.086;15.920;2022-12-18T00:19:44;49.60;48.40;50.77;;
17594;Laerm;8916;47.086;15.920;2022-12-18T00:22:13;49.60;48.45;50.69;;
17594;Laerm;8916;47.086;15.920;2022-12-18T00:24:42;49.60;48.48;50.93;;
17594;Laerm;8916;47.086;15.920;2022-12-18T00:27:12;49.60;48.66;50.63;;
17594;Laerm;8916;47.086;15.920;2022-12-18T00:29:41;49.61;48.43;50.70;;
17594;Laerm;8916;47.086;15.920;2022-12-18T00:32:10;49.60;48.43;50.48;;
17594;Laerm;8916;47.086;15.920;2022-12-18T00:34:40;49.61;48.55;50.56;;
17594;Laerm;8916;47.086;15.920;2022-12-18T00:37:09;49.61;48.46;50.56;;
17594;Laerm;8916;47.086;15.920;2022-12-18T00:39:48;49.63;48.52;50.88;;
17594;Laerm;8916;47.086;15.920;2022-12-18T00:42:19;49.62;48.66;50.57;;
17594;Laerm;8916;47.086;15.920;2022-12-18T00:45:08;49.63;48.45;50.87;;
17594;Laerm;8916;47.086;15.920;2022-12-18T00:47:40;49.63;48.51;50.77;;
17594;Laerm;8916;47.086;15.920;2022-12-18T00:50:10;49.63;48.57;50.58;;
17594;Laerm;8916;47.086;15.920;2022-12-18T00:52:41;49.64;48.49;50.69;;
17594;Laerm;8916;47.086;15.920;2022-12-18T00:55:11;49.64;48.54;50.81;;
17594;Laerm;8916;47.086;15.920;2022-12-18T00:57:41;49.64;48.55;50.64;;
17594;Laerm;8916;47.086;15.920;2022-12-18T01:00:13;49.64;48.57;50.61;;
17594;Laerm;8916;47.086;15.920;2022-12-18T01:02:42;49.64;48.60;50.70;;
17594;Laerm;8916;47.086;15.920;2022-12-18T01:05:14;49.63;48.64;51.05;;
17594;Laerm;8916;47.086;15.920;2022-12-18T01:07:43;49.64;48.58;50.77;;
17594;Laerm;8916;47.086;15.920;2022-12-18T01:10:12;49.63;48.60;50.63;;
17594;Laerm;8916;47.086;15.920;2022-12-18T01:12:41;49.63;48.60;50.72;;
17594;Laerm;8916;47.086;15.920;2022-12-18T01:15:12;49.63;48.45;50.67;;
17594;Laerm;8916;47.086;15.920;2022-12-18T01:17:43;49.62;48.54;50.77;;
17594;Laerm;8916;47.086;15.920;2022-12-18T01:20:13;49.63;48.54;50.62;;
17594;Laerm;8916;47.086;15.920;2022-12-18T01:22:43;49.63;48.42;50.70;;
17594;Laerm;8916;47.086;15.920;2022-12-18T01:25:12;49.63;48.43;50.84;;
17594;Laerm;8916;47.086;15.920;2022-12-18T01:27:41;49.63;48.42;50.74;;
17594;Laerm;8916;47.086;15.920;2022-12-18T01:30:11;49.63;48.57;50.64;;
17594;Laerm;8916;47.086;15.920;2022-12-18T01:32:40;49.63;48.29;50.78;;
17594;Laerm;8916;47.086;15.920;2022-12-18T01:35:10;49.63;48.32;50.81;;
17594;Laerm;8916;47.086;15.920;2022-12-18T01:37:40;49.63;48.51;50.71;;
17594;Laerm;8916;47.086;15.920;2022-12-18T01:40:10;49.63;48.57;50.77;;
17594;Laerm;8916;47.086;15.920;2022-12-18T01:42:39;49.62;48.51;50.90;;
17594;Laerm;8916;47.086;15.920;2022-12-18T01:45:25;49.63;48.36;50.97;;
17594;Laerm;8916;47.086;15.920;2022-12-18T01:47:57;49.63;48.46;50.74;;
17594;Laerm;8916;47.086;15.920;2022-12-18T01:50:31;49.62;48.49;50.69;;
17594;Laerm;8916;47.086;15.920;2022-12-18T01:53:07;49.63;48.64;50.71;;
17594;Laerm;8916;47.086;15.920;2022-12-18T01:55:41;49.63;48.52;50.75;;
17594;Laerm;8916;47.086;15.920;2022-12-18T01:58:11;49.63;48.51;50.75;;
17594;Laerm;8916;47.086;15.920;2022-12-18T02:00:40;49.64;48.48;50.65;;
17594;Laerm;8916;47.086;15.920;2022-12-18T02:03:11;49.64;48.57;50.78;;
17594;Laerm;8916;47.086;15.920;2022-12-18T02:05:46;49.65;48.55;50.64;;
17594;Laerm;8916;47.086;15.920;2022-12-18T02:08:22;49.64;48.55;50.79;;
17594;Laerm;8916;47.086;15.920;2022-12-18T02:11:03;49.64;48.61;50.77;;
17594;Laerm;8916;47.086;15.920;2022-12-18T02:13:42;49.64;48.63;50.70;;
17594;Laerm;8916;47.086;15.920;2022-12-18T02:16:21;49.64;48.45;50.67;;
17594;Laerm;8916;47.086;15.920;2022-12-18T02:18:58;49.63;48.60;50.77;;
17594;Laerm;8916;47.086;15.920;2022-12-18T02:21:35;49.64;48.40;50.73;;
17594;Laerm;8916;47.086;15.920;2022-12-18T02:24:24;49.63;48.32;50.67;;
17594;Laerm;8916;47.086;15.920;2022-12-18T02:27:00;49.63;48.57;50.79;;
17594;Laerm;8916;47.086;15.920;2022-12-18T02:29:36;49.63;48.61;50.78;;
17594;Laerm;8916;47.086;15.920;2022-12-18T02:32:14;49.63;48.55;50.77;;
17594;Laerm;8916;47.086;15.920;2022-12-18T02:34:46;49.63;48.54;50.64;;
17594;Laerm;8916;47.086;15.920;2022-12-18T02:37:19;49.64;48.63;50.74;;
17594;Laerm;8916;47.086;15.920;2022-12-18T02:39:53;49.64;48.52;50.81;;
17594;Laerm;8916;47.086;15.920;2022-12-18T02:42:25;49.64;48.55;50.74;;
17594;Laerm;8916;47.086;15.920;2022-12-18T02:44:56;49.64;48.40;50.76;;
17594;Laerm;8916;47.086;15.920;2022-12-18T02:47:35;49.63;48.48;50.82;;
17594;Laerm;8916;47.086;15.920;2022-12-18T02:50:13;49.63;48.52;50.78;;
17594;Laerm;8916;47.086;15.920;2022-12-18T02:52:57;49.62;48.46;50.68;;
17594;Laerm;8916;47.086;15.920;2022-12-18T02:55:43;49.63;48.54;50.66;;
17594;Laerm;8916;47.086;15.920;2022-12-18T02:58:26;49.62;48.46;50.69;;
17594;Laerm;8916;47.086;15.920;2022-12-18T03:01:08;49.64;48.55;50.75;;
17594;Laerm;8916;47.086;15.920;2022-12-18T03:03:43;49.66;48.49;50.77;;
17594;Laerm;8916;47.086;15.920;2022-12-18T03:06:22;49.65;48.58;50.68;;
17594;Laerm;8916;47.086;15.920;2022-12-18T03:08:58;49.65;48.54;50.97;;
17594;Laerm;8916;47.086;15.920;2022-12-18T03:11:33;49.65;48.57;50.72;;
17594;Laerm;8916;47.086;15.920;2022-12-18T03:14:23;49.65;48.69;50.82;;
17594;Laerm;8916;47.086;15.920;2022-12-18T03:17:00;49.65;48.55;50.66;;
17594;Laerm;8916;47.086;15.920;2022-12-18T03:19:33;49.65;48.49;50.81;;
17594;Laerm;8916;47.086;15.920;2022-12-18T03:22:05;49.64;48.58;50.80;;
17594;Laerm;8916;47.086;15.920;2022-12-18T03:24:46;49.65;48.61;50.61;;
17594;Laerm;8916;47.086;15.920;2022-12-18T03:27:18;49.65;48.43;50.78;;
17594;Laerm;8916;47.086;15.920;2022-12-18T03:29:56;49.65;48.42;50.70;;
17594;Laerm;8916;47.086;15.920;2022-12-18T03:32:41;49.65;48.28;50.68;;
17594;Laerm;8916;47.086;15.920;2022-12-18T03:35:16;49.66;48.60;50.87;;
17594;Laerm;8916;47.086;15.920;2022-12-18T03:37:47;49.66;48.58;50.92;;
17594;Laerm;8916;47.086;15.920;2022-12-18T03:40:20;49.66;48.40;50.77;;
17594;Laerm;8916;47.086;15.920;2022-12-18T03:42:56;49.66;48.66;50.80;;
17594;Laerm;8916;47.086;15.920;2022-12-18T03:45:36;49.65;48.51;50.64;;
17594;Laerm;8916;47.086;15.920;2022-12-18T03:48:11;49.66;48.58;50.59;;
17594;Laerm;8916;47.086;15.920;2022-12-18T03:50:49;49.66;48.63;50.68;;
17594;Laerm;8916;47.086;15.920;2022-12-18T03:53:28;49.67;48.63;50.75;;
17594;Laerm;8916;47.086;15.920;2022-12-18T03:56:02;49.66;48.48;50.78;;
17594;Laerm;8916;47.086;15.920;2022-12-18T03:58:38;49.67;48.56;50.75;;
17594;Laerm;8916;47.086;15.920;2022-12-18T04:01:23;49.66;48.67;50.87;;
17594;Laerm;8916;47.086;15.920;2022-12-18T04:03:54;49.68;48.46;50.64;;
17594;Laerm;8916;47.086;15.920;2022-12-18T04:06:26;49.67;48.54;50.70;;
17594;Laerm;8916;47.086;15.920;2022-12-18T04:08:58;49.69;48.67;50.79;;
17594;Laerm;8916;47.086;15.920;2022-12-18T04:11:29;49.69;48.54;50.85;;
17594;Laerm;8916;47.086;15.920;2022-12-18T04:13:59;49.69;48.58;50.78;;
17594;Laerm;8916;47.086;15.920;2022-12-18T04:16:35;49.67;48.54;50.72;;
17594;Laerm;8916;47.086;15.920;2022-12-18T04:19:06;49.68;48.66;50.76;;
17594;Laerm;8916;47.086;15.920;2022-12-18T04:21:39;49.67;48.48;50.78;;
17594;Laerm;8916;47.086;15.920;2022-12-18T04:24:10;49.68;48.63;50.62;;
17594;Laerm;8916;47.086;15.920;2022-12-18T04:26:46;49.69;48.63;50.68;;
17594;Laerm;8916;47.086;15.920;2022-12-18T04:29:23;49.68;48.53;50.90;;
17594;Laerm;8916;47.086;15.920;2022-12-18T04:31:54;49.68;48.25;50.75;;
17594;Laerm;8916;47.086;15.920;2022-12-18T04:34:25;49.69;48.40;50.72;;
17594;Laerm;8916;47.086;15.920;2022-12-18T04:36:55;49.69;48.60;50.74;;
17594;Laerm;8916;47.086;15.920;2022-12-18T04:39:26;49.69;48.46;50.81;;
17594;Laerm;8916;47.086;15.920;2022-12-18T04:41:59;49.69;48.63;50.70;;
17594;Laerm;8916;47.086;15.920;2022-12-18T04:44:28;49.70;48.70;50.87;;
17594;Laerm;8916;47.086;15.920;2022-12-18T04:46:59;49.69;48.71;50.81;;
17594;Laerm;8916;47.086;15.920;2022-12-18T04:49:28;49.69;48.71;50.68;;
17594;Laerm;8916;47.086;15.920;2022-12-18T04:51:57;49.69;48.60;50.68;;
17594;Laerm;8916;47.086;15.920;2022-12-18T04:54:26;49.68;48.60;50.74;;
17594;Laerm;8916;47.086;15.920;2022-12-18T04:56:55;49.67;48.58;51.00;;
17594;Laerm;8916;47.086;15.920;2022-12-18T04:59:24;49.69;48.39;50.77;;
17594;Laerm;8916;47.086;15.920;2022-12-18T05:01:53;49.69;48.51;50.64;;
17594;Laerm;8916;47.086;15.920;2022-12-18T05:04:24;49.69;48.71;50.76;;
17594;Laerm;8916;47.086;15.920;2022-12-18T05:06:53;49.69;48.66;50.73;;
17594;Laerm;8916;47.086;15.920;2022-12-18T05:09:23;49.70;48.52;50.89;;
17594;Laerm;8916;47.086;15.920;2022-12-18T05:11:52;49.70;48.61;50.72;;
17594;Laerm;8916;47.086;15.920;2022-12-18T05:14:21;49.70;48.57;50.72;;
17594;Laerm;8916;47.086;15.920;2022-12-18T05:16:50;49.69;48.60;50.74;;
17594;Laerm;8916;47.086;15.920;2022-12-18T05:19:27;49.69;48.64;50.68;;
17594;Laerm;8916;47.086;15.920;2022-12-18T05:21:56;49.69;48.57;50.80;;
17594;Laerm;8916;47.086;15.920;2022-12-18T05:24:25;49.68;48.64;50.84;;
17594;Laerm;8916;47.086;15.920;2022-12-18T05:26:54;49.67;48.49;50.69;;
17594;Laerm;8916;47.086;15.920;2022-12-18T05:29:23;49.67;48.61;50.78;;
17594;Laerm;8916;47.086;15.920;2022-12-18T05:31:52;49.67;48.52;50.77;;
17594;Laerm;8916;47.086;15.920;2022-12-18T05:34:22;49.67;48.48;50.72;;
17594;Laerm;8916;47.086;15.920;2022-12-18T05:36:52;49.67;48.71;50.74;;
17594;Laerm;8916;47.086;15.920;2022-12-18T05:39:21;49.66;48.48;50.77;;
17594;Laerm;8916;47.086;15.920;2022-12-18T05:41:50;49.65;48.55;50.69;;
17594;Laerm;8916;47.086;15.920;2022-12-18T05:44:19;49.65;48.39;50.90;;
17594;Laerm;8916;47.086;15.920;2022-12-18T05:46:48;49.64;48.57;50.80;;
17594;Laerm;8916;47.086;15.920;2022-12-18T05:49:17;49.64;48.32;50.75;;
17594;Laerm;8916;47.086;15.920;2022-12-18T05:51:46;49.63;48.36;50.57;;
17594;Laerm;8916;47.086;15.920;2022-12-18T05:54:17;49.63;48.46;50.74;;
17594;Laerm;8916;47.086;15.920;2022-12-18T05:56:46;49.63;48.52;50.69;;
17594;Laerm;8916;47.086;15.920;2022-12-18T05:59:15;49.62;48.51;50.52;;
17594;Laerm;8916;47.086;15.920;2022-12-18T06:01:44;49.62;48.43;50.65;;
17594;Laerm;8916;47.086;15.920;2022-12-18T06:04:14;49.61;48.57;50.73;;
17594;Laerm;8916;47.086;15.920;2022-12-18T06:06:43;49.61;48.57;50.66;;
17594;Laerm;8916;47.086;15.920;2022-12-18T06:09:12;49.61;48.52;50.75;;
17594;Laerm;8916;47.086;15.920;2022-12-18T06:11:42;49.61;48.58;50.68;;
17594;Laerm;8916;47.086;15.920;2022-12-18T06:14:12;49.61;48.34;50.79;;
17594;Laerm;8916;47.086;15.920;2022-12-18T06:16:41;49.62;48.60;50.79;;
17594;Laerm;8916;47.086;15.920;2022-12-18T06:19:14;49.62;48.60;50.82;;
17594;Laerm;8916;47.086;15.920;2022-12-18T06:21:44;49.61;48.55;50.68;;
17594;Laerm;8916;47.086;15.920;2022-12-18T06:24:13;49.62;48.57;50.67;;
17594;Laerm;8916;47.086;15.920;2022-12-18T06:26:43;49.60;48.37;50.59;;
17594;Laerm;8916;47.086;15.920;2022-12-18T06:29:12;49.60;48.52;50.75;;
17594;Laerm;8916;47.086;15.920;2022-12-18T06:31:41;49.61;48.40;50.80;;
17594;Laerm;8916;47.086;15.920;2022-12-18T06:34:11;49.60;48.57;50.56;;
17594;Laerm;8916;47.086;15.920;2022-12-18T06:36:39;49.60;48.48;50.70;;
17594;Laerm;8916;47.086;15.920;2022-12-18T06:39:08;49.61;48.51;50.64;;
17594;Laerm;8916;47.086;15.920;2022-12-18T06:41:38;49.60;48.36;50.79;;
17594;Laerm;8916;47.086;15.920;2022-12-18T06:44:08;49.60;48.57;50.56;;
17594;Laerm;8916;47.086;15.920;2022-12-18T06:46:37;49.60;48.46;50.85;;
17594;Laerm;8916;47.086;15.920;2022-12-18T06:49:08;49.59;48.45;50.75;;
17594;Laerm;8916;47.086;15.920;2022-12-18T06:51:37;49.60;48.48;50.89;;
17594;Laerm;8916;47.086;15.920;2022-12-18T06:54:06;49.61;48.63;50.67;;
17594;Laerm;8916;47.086;15.920;2022-12-18T06:56:35;49.60;48.43;50.63;;
17594;Laerm;8916;47.086;15.920;2022-12-18T06:59:04;49.59;48.61;50.72;;
17594;Laerm;8916;47.086;15.920;2022-12-18T07:01:35;49.60;48.48;50.66;;
17594;Laerm;8916;47.086;15.920;2022-12-18T07:04:04;49.59;48.48;50.68;;
17594;Laerm;8916;47.086;15.920;2022-12-18T07:06:33;49.60;48.57;50.72;;
17594;Laerm;8916;47.086;15.920;2022-12-18T07:09:03;49.59;48.29;50.69;;
17594;Laerm;8916;47.086;15.920;2022-12-18T07:11:32;49.59;48.53;50.59;;
17594;Laerm;8916;47.086;15.920;2022-12-18T07:14:02;49.59;48.49;50.59;;
17594;Laerm;8916;47.086;15.920;2022-12-18T07:16:31;49.60;48.49;50.90;;
17594;Laerm;8916;47.086;15.920;2022-12-18T07:19:01;49.59;48.32;50.70;;
17594;Laerm;8916;47.086;15.920;2022-12-18T07:21:30;49.59;48.51;50.57;;
17594;Laerm;8916;47.086;15.920;2022-12-18T07:23:59;49.59;48.48;50.77;;
17594;Laerm;8916;47.086;15.920;2022-12-18T07:26:28;49.59;48.42;50.66;;
17594;Laerm;8916;47.086;15.920;2022-12-18T07:28:58;49.59;48.51;50.71;;
17594;Laerm;8916;47.086;15.920;2022-12-18T07:31:27;49.59;48.46;50.71;;
17594;Laerm;8916;47.086;15.920;2022-12-18T07:33:56;49.58;48.51;50.61;;
17594;Laerm;8916;47.086;15.920;2022-12-18T07:36:27;49.58;48.58;50.67;;
17594;Laerm;8916;47.086;15.920;2022-12-18T07:38:56;49.58;48.58;50.68;;
17594;Laerm;8916;47.086;15.920;2022-12-18T07:41:25;49.58;48.29;50.70;;
17594;Laerm;8916;47.086;15.920;2022-12-18T07:43:54;49.58;48.39;50.94;;
17594;Laerm;8916;47.086;15.920;2022-12-18T07:46:23;49.58;48.40;50.74;;
17594;Laerm;8916;47.086;15.920;2022-12-18T07:48:52;49.58;48.43;50.56;;
17594;Laerm;8916;47.086;15.920;2022-12-18T07:51:21;49.58;48.41;50.66;;
17594;Laerm;8916;47.086;15.920;2022-12-18T07:53:52;49.57;48.48;50.63;;
17594;Laerm;8916;47.086;15.920;2022-12-18T07:56:21;49.57;48.40;50.57;;
17594;Laerm;8916;47.086;15.920;2022-12-18T07:58:56;49.56;48.42;50.68;;
17594;Laerm;8916;47.086;15.920;2022-12-18T08:01:26;49.58;48.58;50.80;;
17594;Laerm;8916;47.086;15.920;2022-12-18T08:03:57;49.57;48.39;50.58;;
17594;Laerm;8916;47.086;15.920;2022-12-18T08:06:26;49.56;48.49;50.53;;
17594;Laerm;8916;47.086;15.920;2022-12-18T08:08:57;49.57;48.18;50.67;;
17594;Laerm;8916;47.086;15.920;2022-12-18T08:11:27;49.56;48.52;50.54;;
17594;Laerm;8916;47.086;15.920;2022-12-18T08:13:57;49.55;48.45;50.72;;
17594;Laerm;8916;47.086;15.920;2022-12-18T08:16:26;49.56;48.51;50.73;;
17594;Laerm;8916;47.086;15.920;2022-12-18T08:18:56;49.56;48.46;50.68;;
17594;Laerm;8916;47.086;15.920;2022-12-18T08:21:27;49.56;48.55;50.93;;
17594;Laerm;8916;47.086;15.920;2022-12-18T08:24:00;49.56;48.49;50.75;;
17594;Laerm;8916;47.086;15.920;2022-12-18T08:26:31;49.56;48.49;50.71;;
17594;Laerm;8916;47.086;15.920;2022-12-18T08:29:00;49.56;48.23;50.65;;
17594;Laerm;8916;47.086;15.920;2022-12-18T08:31:30;49.57;48.54;50.56;;
17594;Laerm;8916;47.086;15.920;2022-12-18T08:34:00;49.55;48.60;50.52;;
17594;Laerm;8916;47.086;15.920;2022-12-18T08:36:29;49.55;48.28;50.55;;
17594;Laerm;8916;47.086;15.920;2022-12-18T08:39:00;49.55;48.39;50.57;;
17594;Laerm;8916;47.086;15.920;2022-12-18T08:41:29;49.55;48.58;50.73;;
17594;Laerm;8916;47.086;15.920;2022-12-18T08:43:59;49.55;48.45;50.70;;
17594;Laerm;8916;47.086;15.920;2022-12-18T08:46:45;49.54;48.48;50.60;;
17594;Laerm;8916;47.086;15.920;2022-12-18T08:49:15;49.54;48.49;50.74;;
17594;Laerm;8916;47.086;15.920;2022-12-18T08:51:44;49.54;48.55;50.75;;
17594;Laerm;8916;47.086;15.920;2022-12-18T08:54:14;49.53;48.46;50.70;;
17594;Laerm;8916;47.086;15.920;2022-12-18T08:56:43;49.53;48.36;50.60;;
17594;Laerm;8916;47.086;15.920;2022-12-18T08:59:12;49.53;48.42;50.82;;
17594;Laerm;8916;47.086;15.920;2022-12-18T09:01:47;49.52;48.49;50.68;;
17594;Laerm;8916;47.086;15.920;2022-12-18T09:04:16;49.53;48.48;50.57;;
17594;Laerm;8916;47.086;15.920;2022-12-18T09:06:45;49.52;48.43;50.69;;
17594;Laerm;8916;47.086;15.920;2022-12-18T09:09:16;49.53;48.40;50.67;;
17594;Laerm;8916;47.086;15.920;2022-12-18T09:11:45;49.53;48.40;50.65;;
17594;Laerm;8916;47.086;15.920;2022-12-18T09:14:14;49.51;48.49;50.56;;
17594;Laerm;8916;47.086;15.920;2022-12-18T09:16:43;49.52;48.37;50.73;;
17594;Laerm;8916;47.086;15.920;2022-12-18T09:19:13;49.52;48.58;50.80;;
17594;Laerm;8916;47.086;15.920;2022-12-18T09:21:42;49.52;48.54;50.50;;
17594;Laerm;8916;47.086;15.920;2022-12-18T09:24:17;49.52;48.32;50.68;;
17594;Laerm;8916;47.086;15.920;2022-12-18T09:26:46;49.51;48.18;50.68;;
17594;Laerm;8916;47.086;15.920;2022-12-18T09:29:19;49.50;48.36;50.49;;
17594;Laerm;8916;47.086;15.920;2022-12-18T09:31:48;49.51;48.48;50.55;;
17594;Laerm;8916;47.086;15.920;2022-12-18T09:34:18;49.52;48.29;50.66;;
17594;Laerm;8916;47.086;15.920;2022-12-18T09:36:49;49.51;48.36;50.54;;
17594;Laerm;8916;47.086;15.920;2022-12-18T09:39:20;49.51;48.39;50.61;;
17594;Laerm;8916;47.086;15.920;2022-12-18T09:41:53;49.51;48.34;50.75;;
17594;Laerm;8916;47.086;15.920;2022-12-18T09:44:27;49.50;48.37;50.66;;
17594;Laerm;8916;47.086;15.920;2022-12-18T09:47:06;49.50;48.45;50.55;;
17594;Laerm;8916;47.086;15.920;2022-12-18T09:49:42;49.50;48.40;50.54;;
17594;Laerm;8916;47.086;15.920;2022-12-18T09:52:19;49.50;48.25;50.58;;
17594;Laerm;8916;47.086;15.920;2022-12-18T09:54:58;49.50;48.46;50.58;;
17594;Laerm;8916;47.086;15.920;2022-12-18T09:57:32;49.50;48.39;50.59;;
17594;Laerm;8916;47.086;15.920;2022-12-18T10:00:08;49.50;48.29;50.54;;
17594;Laerm;8916;47.086;15.920;2022-12-18T10:02:42;49.50;48.28;50.52;;
17594;Laerm;8916;47.086;15.920;2022-12-18T10:05:13;49.50;48.52;50.55;;
17594;Laerm;8916;47.086;15.920;2022-12-18T10:07:55;49.49;48.45;50.52;;
17594;Laerm;8916;47.086;15.920;2022-12-18T10:10:36;49.50;48.31;50.72;;
17594;Laerm;8916;47.086;15.920;2022-12-18T10:13:16;49.49;48.40;50.70;;
17594;Laerm;8916;47.086;15.920;2022-12-18T10:16:01;49.49;48.42;50.70;;
17594;Laerm;8916;47.086;15.920;2022-12-18T10:19:12;49.48;48.40;50.59;;
17594;Laerm;8916;47.086;15.920;2022-12-18T10:21:55;49.48;48.43;50.71;;
17594;Laerm;8916;47.086;15.920;2022-12-18T10:24:32;49.49;48.34;50.54;;
17594;Laerm;8916;47.086;15.920;2022-12-18T10:27:13;49.49;48.16;50.56;;
17594;Laerm;8916;47.086;15.920;2022-12-18T10:29:44;49.49;48.40;50.63;;
17594;Laerm;8916;47.086;15.920;2022-12-18T10:32:16;49.49;48.12;50.80;;
17594;Laerm;8916;47.086;15.920;2022-12-18T10:34:46;49.48;48.34;50.59;;
17594;Laerm;8916;47.086;15.920;2022-12-18T10:37:18;49.49;48.43;50.55;;
17594;Laerm;8916;47.086;15.920;2022-12-18T10:40:08;49.49;48.18;50.66;;
17594;Laerm;8916;47.086;15.920;2022-12-18T10:42:46;49.47;48.36;50.57;;
17594;Laerm;8916;47.086;15.920;2022-12-18T10:45:17;49.48;48.32;50.54;;
17594;Laerm;8916;47.086;15.920;2022-12-18T10:47:48;49.49;48.31;50.59;;
17594;Laerm;8916;47.086;15.920;2022-12-18T10:50:26;49.49;48.54;50.87;;
17594;Laerm;8916;47.086;15.920;2022-12-18T10:53:21;49.48;48.36;50.61;;
17594;Laerm;8916;47.086;15.920;2022-12-18T10:55:54;49.48;48.21;50.61;;
17594;Laerm;8916;47.086;15.920;2022-12-18T10:58:29;49.48;48.39;50.57;;
17594;Laerm;8916;47.086;15.920;2022-12-18T11:01:07;49.48;48.26;50.43;;
17594;Laerm;8916;47.086;15.920;2022-12-18T11:03:39;49.48;48.43;50.91;;
17594;Laerm;8916;47.086;15.920;2022-12-18T11:06:11;49.48;48.45;50.67;;
17594;Laerm;8916;47.086;15.920;2022-12-18T11:08:42;49.48;48.52;50.49;;
17594;Laerm;8916;47.086;15.920;2022-12-18T11:11:20;49.47;48.26;50.76;;
17594;Laerm;8916;47.086;15.920;2022-12-18T11:14:02;49.47;48.39;50.79;;
17594;Laerm;8916;47.086;15.920;2022-12-18T11:16:36;49.47;48.45;50.57;;
17594;Laerm;8916;47.086;15.920;2022-12-18T11:19:34;49.47;48.26;50.48;;
17594;Laerm;8916;47.086;15.920;2022-12-18T11:22:20;49.47;48.46;50.67;;
17594;Laerm;8916;47.086;15.920;2022-12-18T11:24:56;49.47;48.20;50.47;;
17594;Laerm;8916;47.086;15.920;2022-12-18T11:27:52;49.47;48.31;50.51;;
17594;Laerm;8916;47.086;15.920;2022-12-18T11:30:27;49.48;48.31;50.57;;
17594;Laerm;8916;47.086;15.920;2022-12-18T11:33:03;49.46;48.26;50.45;;
17594;Laerm;8916;47.086;15.920;2022-12-18T11:35:40;49.47;48.32;50.39;;
17594;Laerm;8916;47.086;15.920;2022-12-18T11:38:20;49.46;48.29;50.57;;
17594;Laerm;8916;47.086;15.920;2022-12-18T11:40:58;49.46;48.49;50.53;;
17594;Laerm;8916;47.086;15.920;2022-12-18T11:43:33;49.46;48.32;50.72;;
17594;Laerm;8916;47.086;15.920;2022-12-18T11:46:15;49.46;48.38;50.57;;
17594;Laerm;8916;47.086;15.920;2022-12-18T11:48:54;49.46;48.36;50.73;;
17594;Laerm;8916;47.086;15.920;2022-12-18T11:51:32;49.47;48.37;50.64;;
17594;Laerm;8916;47.086;15.920;2022-12-18T11:54:11;49.47;48.42;50.57;;
17594;Laerm;8916;47.086;15.920;2022-12-18T11:56:46;49.45;48.32;50.58;;
17594;Laerm;8916;47.086;15.920;2022-12-18T11:59:26;49.45;48.31;50.64;;
17594;Laerm;8916;47.086;15.920;2022-12-18T12:02:15;49.46;48.37;50.56;;
17594;Laerm;8916;47.086;15.920;2022-12-18T12:05:11;49.46;48.43;50.76;;
17594;Laerm;8916;47.086;15.920;2022-12-18T12:07:48;49.46;48.51;50.68;;
17594;Laerm;8916;47.086;15.920;2022-12-18T12:10:37;49.46;48.21;50.55;;
17594;Laerm;8916;47.086;15.920;2022-12-18T12:13:23;49.46;48.37;50.43;;
17594;Laerm;8916;47.086;15.920;2022-12-18T12:16:07;49.45;48.37;50.58;;
17594;Laerm;8916;47.086;15.920;2022-12-18T12:18:58;49.46;48.21;50.68;;
17594;Laerm;8916;47.086;15.920;2022-12-18T12:21:39;49.46;48.23;50.59;;
17594;Laerm;8916;47.086;15.920;2022-12-18T12:24:27;49.47;48.40;50.67;;
17594;Laerm;8916;47.086;15.920;2022-12-18T12:27:10;49.46;48.37;50.67;;
17594;Laerm;8916;47.086;15.920;2022-12-18T12:29:55;49.47;48.40;50.57;;
17594;Laerm;8916;47.086;15.920;2022-12-18T12:32:50;49.46;48.26;50.45;;
17594;Laerm;8916;47.086;15.920;2022-12-18T12:35:42;49.46;48.25;50.61;;
17594;Laerm;8916;47.086;15.920;2022-12-18T12:38:17;49.45;48.36;50.55;;
17594;Laerm;8916;47.086;15.920;2022-12-18T12:40:52;49.46;48.36;50.76;;
17594;Laerm;8916;47.086;15.920;2022-12-18T12:43:38;49.46;48.34;50.73;;
17594;Laerm;8916;47.086;15.920;2022-12-18T12:46:19;49.46;48.37;50.65;;
17594;Laerm;8916;47.086;15.920;2022-12-18T12:48:53;49.45;48.45;50.50;;
17594;Laerm;8916;47.086;15.920;2022-12-18T12:51:34;49.46;48.25;50.55;;
17594;Laerm;8916;47.086;15.920;2022-12-18T12:54:11;49.46;48.31;50.55;;
17594;Laerm;8916;47.086;15.920;2022-12-18T12:56:50;49.47;48.20;50.56;;
17594;Laerm;8916;47.086;15.920;2022-12-18T12:59:30;49.46;48.40;50.70;;
17594;Laerm;8916;47.086;15.920;2022-12-18T13:02:15;49.47;48.43;50.57;;
17594;Laerm;8916;47.086;15.920;2022-12-18T13:04:57;49.46;48.53;50.51;;
17594;Laerm;8916;47.086;15.920;2022-12-18T13:07:33;49.46;48.37;50.58;;
17594;Laerm;8916;47.086;15.920;2022-12-18T13:10:30;49.46;48.37;50.63;;
17594;Laerm;8916;47.086;15.920;2022-12-18T13:13:03;49.44;48.34;50.43;;
17594;Laerm;8916;47.086;15.920;2022-12-18T13:15:39;49.45;48.48;50.54;;
17594;Laerm;8916;47.086;15.920;2022-12-18T13:18:33;49.45;48.23;50.55;;
17594;Laerm;8916;47.086;15.920;2022-12-18T13:21:12;49.45;48.23;50.52;;
17594;Laerm;8916;47.086;15.920;2022-12-18T13:23:50;49.46;48.23;50.58;;
17594;Laerm;8916;47.086;15.920;2022-12-18T13:26:32;49.45;48.31;50.77;;
17594;Laerm;8916;47.086;15.920;2022-12-18T13:29:03;49.45;48.13;50.47;;
17594;Laerm;8916;47.086;15.920;2022-12-18T13:32:20;49.45;48.36;50.56;;
17594;Laerm;8916;47.086;15.920;2022-12-18T13:38:22;49.45;48.36;50.48;;
17594;Laerm;8916;47.086;15.920;2022-12-18T13:40:57;49.46;48.43;50.58;;
17594;Laerm;8916;47.086;15.920;2022-12-18T13:43:33;49.45;48.37;50.83;;
17594;Laerm;8916;47.086;15.920;2022-12-18T13:46:18;49.45;48.48;50.50;;
17594;Laerm;8916;47.086;15.920;2022-12-18T13:48:56;49.45;48.36;50.60;;
17594;Laerm;8916;47.086;15.920;2022-12-18T13:51:27;49.46;48.45;50.67;;
17594;Laerm;8916;47.086;15.920;2022-12-18T13:53:59;49.46;48.37;50.80;;
17594;Laerm;8916;47.086;15.920;2022-12-18T13:56:33;49.45;48.34;50.61;;
17594;Laerm;8916;47.086;15.920;2022-12-18T13:59:16;49.45;48.40;50.59;;
17594;Laerm;8916;47.086;15.920;2022-12-18T14:01:56;49.45;48.42;50.68;;
17594;Laerm;8916;47.086;15.920;2022-12-18T14:04:29;49.45;48.28;50.66;;
17594;Laerm;8916;47.086;15.920;2022-12-18T14:07:03;49.44;48.43;50.54;;
17594;Laerm;8916;47.086;15.920;2022-12-18T14:09:40;49.45;48.32;50.62;;
17594;Laerm;8916;47.086;15.920;2022-12-18T14:12:18;49.45;48.36;50.62;;
17594;Laerm;8916;47.086;15.920;2022-12-18T14:15:20;49.45;48.18;50.83;;
17594;Laerm;8916;47.086;15.920;2022-12-18T14:17:55;49.45;48.45;50.48;;
17594;Laerm;8916;47.086;15.920;2022-12-18T14:20:27;49.45;48.18;50.49;;
17594;Laerm;8916;47.086;15.920;2022-12-18T14:22:59;49.44;48.15;50.56;;
17594;Laerm;8916;47.086;15.920;2022-12-18T14:25:31;49.44;48.23;50.44;;
17594;Laerm;8916;47.086;15.920;2022-12-18T14:28:13;49.45;48.48;50.53;;